Time;durP1;ratioP1;P1;durP2;ratioP2;P2;SDS_P1;SDS_P2;PMS_P1;PMS_P2;Temp;Humidity;BMP_temperature;BMP_pressure;BME280_temperature;BME280_humidity;BME280_pressure;Samples;Min_cycle;Max_cycle;Signal;HPM_P1;HPM_P2
2024/04/10 00:00:17;;;;;;;3.92;0.70;;;;;;;6.24;69.02;100638.25;5269514;27;20022;-49
2024/04/10 00:02:44;;;;;;;1.85;0.40;;;;;;;6.25;68.85;100642.56;5264600;27;20084;-50
2024/04/10 00:05:11;;;;;;;4.60;0.70;;;;;;;6.23;68.93;100644.25;5263695;27;20128;-50
2024/04/10 00:07:38;;;;;;;1.85;0.85;;;;;;;6.19;68.88;100656.97;5269109;27;20014;-45
2024/04/10 00:10:05;;;;;;;6.90;1.33;;;;;;;6.16;69.09;100665.50;5269473;27;20020;-48
2024/04/10 00:12:33;;;;;;;4.25;0.82;;;;;;;6.12;68.78;100672.25;5258730;27;20638;-47
2024/04/10 00:15:00;;;;;;;5.68;0.60;;;;;;;6.05;69.07;100675.50;5262629;27;20333;-50
2024/04/10 00:17:28;;;;;;;3.42;1.02;;;;;;;5.98;69.51;100683.88;5271440;26;20018;-46
2024/04/10 00:19:55;;;;;;;3.70;1.20;;;;;;;5.92;69.60;100690.56;5268175;27;20006;-46
2024/04/10 00:22:23;;;;;;;6.82;0.98;;;;;;;5.91;69.85;100695.66;5261774;27;20018;-45
2024/04/10 00:24:52;;;;;;;1.17;0.80;;;;;;;5.90;69.96;100697.38;5268883;27;20006;-46
2024/04/10 00:27:18;;;;;;;4.85;0.68;;;;;;;5.89;70.19;100711.06;5268158;27;20092;-47
2024/04/10 00:29:45;;;;;;;2.08;1.88;;;;;;;5.79;70.94;100715.09;5263144;27;20020;-46
2024/04/10 00:32:12;;;;;;;1.48;0.88;;;;;;;5.79;70.48;100709.06;5264001;26;20018;-45
2024/04/10 00:34:39;;;;;;;1.25;0.95;;;;;;;5.78;70.87;100697.91;5268256;27;20002;-45
2024/04/10 00:37:06;;;;;;;2.13;1.15;;;;;;;5.78;71.13;100708.19;5265921;27;20006;-47
2024/04/10 00:39:32;;;;;;;4.45;0.77;;;;;;;5.80;70.74;100710.81;5269358;27;20011;-46
2024/04/10 00:41:59;;;;;;;3.13;1.05;;;;;;;5.77;70.78;100710.72;5268268;27;20002;-46
2024/04/10 00:44:26;;;;;;;1.70;0.80;;;;;;;5.71;71.30;100702.84;5269101;27;20080;-44
2024/04/10 00:46:54;;;;;;;1.30;1.02;;;;;;;5.73;71.06;100693.47;5269612;27;20021;-45
2024/04/10 00:49:21;;;;;;;1.10;1.00;;;;;;;5.72;71.10;100700.31;5268763;27;20034;-47
2024/04/10 00:51:49;;;;;;;1.95;0.50;;;;;;;5.71;71.19;100715.69;5264541;27;20022;-45
2024/04/10 00:54:17;;;;;;;1.23;0.30;;;;;;;5.71;71.29;100719.13;5267938;27;20010;-45
2024/04/10 00:56:44;;;;;;;9.00;0.63;;;;;;;5.72;70.94;100715.75;5267152;27;20010;-45
2024/04/10 00:59:11;;;;;;;2.50;0.50;;;;;;;5.70;70.91;100716.50;5268123;27;20054;-46
2024/04/10 01:01:38;;;;;;;3.92;1.05;;;;;;;5.71;70.78;100715.69;5261119;27;20006;-46
2024/04/10 01:04:05;;;;;;;2.95;1.60;;;;;;;5.68;71.04;100725.88;5265231;26;20051;-45
2024/04/10 01:06:33;;;;;;;5.97;1.08;;;;;;;5.66;71.31;100736.13;5265376;26;20014;-45
2024/04/10 01:09:00;;;;;;;4.03;1.23;;;;;;;5.61;71.83;100738.56;5269496;27;20024;-45
2024/04/10 01:11:27;;;;;;;1.02;0.45;;;;;;;5.63;71.56;100739.47;5268181;27;20054;-44
2024/04/10 01:13:54;;;;;;;0.70;0.32;;;;;;;5.59;71.64;100737.66;5253080;27;20337;-47
2024/04/10 01:16:21;;;;;;;1.23;0.77;;;;;;;5.60;71.45;100744.53;5271817;27;20021;-45
2024/04/10 01:18:47;;;;;;;2.05;0.75;;;;;;;5.56;71.56;100742.69;5265782;26;20021;-46
2024/04/10 01:21:14;;;;;;;4.68;0.85;;;;;;;5.53;71.75;100746.06;5263223;27;20039;-45
2024/04/10 01:23:41;;;;;;;2.10;0.47;;;;;;;5.47;72.14;100742.44;5266494;26;20021;-46
2024/04/10 01:26:08;;;;;;;3.05;0.63;;;;;;;5.49;71.85;100741.66;5297813;26;20010;-47
2024/04/10 01:28:35;;;;;;;1.38;0.88;;;;;;;5.50;71.97;100739.94;5307814;26;20010;-45
2024/04/10 01:31:02;;;;;;;1.40;0.85;;;;;;;5.48;72.05;100754.47;5295988;26;20002;-47
2024/04/10 01:33:28;;;;;;;3.35;0.93;;;;;;;5.45;72.22;100754.34;5276434;26;20006;-46
2024/04/10 01:35:56;;;;;;;2.47;1.02;;;;;;;5.44;72.76;100760.34;5268319;27;20022;-45
2024/04/10 01:38:24;;;;;;;2.92;0.95;;;;;;;5.42;72.56;100759.41;5265979;27;20007;-46
2024/04/10 01:40:51;;;;;;;1.55;1.45;;;;;;;5.40;73.22;100762.81;5268242;27;20551;-47
2024/04/10 01:43:18;;;;;;;5.97;0.68;;;;;;;5.46;72.53;100761.22;5267047;27;20018;-45
2024/04/10 01:45:44;;;;;;;0.82;0.82;;;;;;;5.43;72.78;100776.59;5258153;27;20096;-46
2024/04/10 01:48:11;;;;;;;1.17;0.50;;;;;;;5.43;73.00;100797.13;5257025;27;20085;-46
2024/04/10 01:50:38;;;;;;;4.22;1.17;;;;;;;5.43;73.05;100803.13;5265150;27;20479;-46
2024/04/10 01:53:05;;;;;;;2.10;0.88;;;;;;;5.45;73.08;100800.59;5265479;27;20359;-45
2024/04/10 01:55:32;;;;;;;1.70;1.50;;;;;;;5.45;72.82;100790.34;5263915;27;20355;-45
2024/04/10 01:57:59;;;;;;;6.63;0.47;;;;;;;5.45;73.02;100790.34;5264884;26;20556;-46
2024/04/10 02:00:26;;;;;;;2.63;1.27;;;;;;;5.46;72.87;100792.06;5260440;27;20002;-46
2024/04/10 02:02:53;;;;;;;1.10;0.45;;;;;;;5.38;73.52;100799.56;5260212;27;20018;-45
2024/04/10 02:05:20;;;;;;;3.85;1.38;;;;;;;5.39;73.09;100785.88;5267278;27;20014;-47
2024/04/10 02:07:47;;;;;;;3.13;0.70;;;;;;;5.42;72.93;100790.22;5264849;27;20021;-47
2024/04/10 02:10:14;;;;;;;1.55;0.65;;;;;;;5.39;72.65;100801.28;5265598;27;20006;-45
2024/04/10 02:12:41;;;;;;;5.00;0.63;;;;;;;5.37;72.83;100808.94;5260946;27;20042;-46
2024/04/10 02:15:08;;;;;;;5.15;1.15;;;;;;;5.35;73.08;100797.78;5263499;27;20403;-45
2024/04/10 02:17:35;;;;;;;2.88;0.95;;;;;;;5.33;73.18;100807.09;5264959;27;20452;-48
2024/04/10 02:20:03;;;;;;;4.47;0.60;;;;;;;5.33;73.18;100804.53;5267827;27;20017;-46
2024/04/10 02:22:30;;;;;;;1.77;0.68;;;;;;;5.32;73.05;100805.38;5271500;26;20007;-46
2024/04/10 02:24:56;;;;;;;5.40;0.82;;;;;;;5.31;73.16;100811.34;5267676;27;20018;-46
2024/04/10 02:27:23;;;;;;;6.90;1.50;;;;;;;5.28;72.75;100808.69;5267666;26;20574;-51
2024/04/10 02:29:50;;;;;;;4.80;0.75;;;;;;;5.25;72.73;100803.44;5269892;27;20014;-46
2024/04/10 02:32:17;;;;;;;1.00;0.80;;;;;;;5.23;73.01;100799.94;5267324;27;20032;-51
2024/04/10 02:34:44;;;;;;;5.18;0.77;;;;;;;5.20;73.23;100810.13;5268082;27;20029;-48
2024/04/10 02:37:11;;;;;;;2.67;0.85;;;;;;;5.21;73.13;100806.72;5269226;27;20051;-46
2024/04/10 02:39:39;;;;;;;5.13;1.15;;;;;;;5.20;73.00;100805.00;5263049;27;20017;-49
2024/04/10 02:42:05;;;;;;;4.57;0.68;;;;;;;5.18;72.76;100807.50;5270120;27;20013;-47
2024/04/10 02:44:32;;;;;;;3.17;0.98;;;;;;;5.16;73.01;100801.44;5268050;27;20430;-47
2024/04/10 02:46:59;;;;;;;3.13;0.77;;;;;;;5.16;72.72;100798.03;5262552;27;20002;-47
2024/04/10 02:49:27;;;;;;;5.53;0.93;;;;;;;5.13;72.80;100807.34;5268660;26;20010;-45
2024/04/10 02:51:53;;;;;;;4.63;1.10;;;;;;;5.11;72.66;100810.72;5268703;27;20281;-49
2024/04/10 02:54:20;;;;;;;4.95;0.93;;;;;;;5.08;72.96;100808.03;5266238;27;20387;-46
2024/04/10 02:56:47;;;;;;;3.55;1.10;;;;;;;5.04;73.03;100804.50;5269256;26;20076;-46
2024/04/10 02:59:14;;;;;;;5.05;1.20;;;;;;;5.05;72.88;100801.09;5257368;27;20066;-46
2024/04/10 03:01:41;;;;;;;3.17;1.80;;;;;;;5.03;72.97;100795.03;5266668;27;20025;-47
2024/04/10 03:04:08;;;;;;;1.63;0.43;;;;;;;5.01;73.00;100805.25;5265514;27;20089;-46
2024/04/10 03:06:35;;;;;;;3.67;0.77;;;;;;;5.02;72.90;100818.97;5252786;26;20014;-47
2024/04/10 03:09:02;;;;;;;4.35;1.02;;;;;;;5.02;72.70;100811.28;5265356;27;20568;-46
2024/04/10 03:11:28;;;;;;;4.20;0.80;;;;;;;5.01;72.92;100822.38;5270004;27;20021;-46
2024/04/10 03:13:56;;;;;;;4.13;0.80;;;;;;;5.00;72.75;100818.94;5266416;27;20444;-44
2024/04/10 03:16:23;;;;;;;4.53;0.63;;;;;;;4.98;72.92;100814.56;5266741;27;20006;-45
2024/04/10 03:18:49;;;;;;;2.90;0.60;;;;;;;4.97;73.05;100820.53;5276037;27;20011;-45
2024/04/10 03:21:16;;;;;;;4.50;0.60;;;;;;;4.96;72.76;100817.09;5272568;27;20010;-47
2024/04/10 03:23:43;;;;;;;3.05;1.27;;;;;;;4.95;72.82;100823.06;5267267;27;20459;-51
2024/04/10 03:26:10;;;;;;;2.78;1.15;;;;;;;4.94;72.82;100829.00;5270193;27;20010;-50
2024/04/10 03:28:38;;;;;;;2.00;0.95;;;;;;;4.93;73.24;100839.22;5269834;27;20039;-49
2024/04/10 03:31:06;;;;;;;3.17;1.10;;;;;;;4.93;72.81;100841.78;5270131;27;20018;-48
2024/04/10 03:33:35;;;;;;;4.82;0.98;;;;;;;4.91;73.16;100849.44;5259418;27;20360;-46
2024/04/10 03:36:04;;;;;;;4.03;0.90;;;;;;;4.90;73.06;100842.56;5268979;27;20466;-48
2024/04/10 03:38:31;;;;;;;2.25;0.93;;;;;;;4.87;73.16;100853.59;5262948;26;20021;-47
2024/04/10 03:40:58;;;;;;;2.17;0.82;;;;;;;4.86;73.15;100851.84;5265812;27;20476;-46
2024/04/10 03:43:25;;;;;;;5.13;1.45;;;;;;;4.85;73.32;100852.69;5258112;27;20007;-47
2024/04/10 03:45:53;;;;;;;1.48;0.50;;;;;;;4.84;73.49;100843.25;5262177;27;20343;-47
2024/04/10 03:48:19;;;;;;;5.05;1.23;;;;;;;4.83;74.20;100854.31;5269600;27;20016;-46
2024/04/10 03:50:46;;;;;;;2.28;0.82;;;;;;;4.87;74.33;100863.00;5270044;27;20010;-47
2024/04/10 03:53:13;;;;;;;4.35;0.80;;;;;;;4.87;74.36;100861.28;5264241;27;20006;-47
2024/04/10 03:55:40;;;;;;;1.45;0.75;;;;;;;4.88;74.47;100860.50;5266813;27;20077;-47
2024/04/10 03:58:07;;;;;;;2.47;1.85;;;;;;;4.87;74.34;100853.59;5267931;27;20018;-45
2024/04/10 04:00:34;;;;;;;1.20;0.60;;;;;;;4.86;74.81;100859.53;5267179;27;20471;-46
2024/04/10 04:03:01;;;;;;;1.60;0.82;;;;;;;4.87;74.89;100863.84;5267347;27;20413;-47
2024/04/10 04:05:29;;;;;;;6.55;1.33;;;;;;;4.92;74.54;100871.72;5262831;27;20896;-46
2024/04/10 04:07:56;;;;;;;3.40;0.63;;;;;;;4.92;74.89;100868.28;5270357;27;20002;-46
2024/04/10 04:10:23;;;;;;;3.75;0.60;;;;;;;4.95;74.35;100871.84;5267129;27;20822;-45
2024/04/10 04:12:49;;;;;;;3.25;0.93;;;;;;;4.95;74.69;100870.94;5266138;27;20015;-46
2024/04/10 04:15:16;;;;;;;2.08;0.68;;;;;;;4.95;74.59;100878.66;5265797;27;20002;-45
2024/04/10 04:17:43;;;;;;;1.17;1.08;;;;;;;4.96;74.99;100872.72;5269406;27;20081;-47
2024/04/10 04:20:11;;;;;;;0.88;0.52;;;;;;;4.97;75.24;100879.59;5261744;27;20014;-45
2024/04/10 04:22:38;;;;;;;4.03;0.75;;;;;;;5.00;75.17;100879.69;5269240;27;20163;-46
2024/04/10 04:25:05;;;;;;;6.25;0.82;;;;;;;5.01;75.26;100884.84;5262691;27;20021;-45
2024/04/10 04:27:32;;;;;;;2.25;0.88;;;;;;;5.01;75.13;100881.44;5266518;27;20459;-45
2024/04/10 04:30:00;;;;;;;1.02;0.60;;;;;;;5.03;75.21;100879.78;5269817;27;20010;-47
2024/04/10 04:32:27;;;;;;;5.30;0.57;;;;;;;5.05;75.36;100888.41;5265714;27;20598;-46
2024/04/10 04:34:54;;;;;;;2.80;0.50;;;;;;;5.07;75.23;100891.88;5267479;27;20084;-46
2024/04/10 04:37:21;;;;;;;6.82;0.90;;;;;;;5.06;75.21;100885.03;5297815;26;20013;-45
2024/04/10 04:39:48;;;;;;;4.78;0.90;;;;;;;5.09;74.91;100887.69;5295777;26;20010;-45
2024/04/10 04:42:15;;;;;;;2.72;0.52;;;;;;;5.09;74.95;100895.41;5294755;26;20011;-47
2024/04/10 04:44:42;;;;;;;2.25;1.02;;;;;;;5.09;74.98;100903.09;5300846;26;20464;-45
2024/04/10 04:47:10;;;;;;;3.47;0.75;;;;;;;5.09;74.88;100895.41;5301187;26;20010;-46
2024/04/10 04:49:37;;;;;;;1.80;0.80;;;;;;;5.08;74.68;100898.78;5301212;27;20012;-46
2024/04/10 04:52:04;;;;;;;1.50;0.38;;;;;;;5.09;74.91;100905.66;5302900;26;20092;-47
2024/04/10 04:54:31;;;;;;;3.45;1.23;;;;;;;5.08;74.68;100906.50;5308488;26;20450;-47
2024/04/10 04:56:58;;;;;;;0.47;0.47;;;;;;;5.09;74.84;100915.94;5294313;26;20002;-47
2024/04/10 04:59:25;;;;;;;8.82;1.45;;;;;;;5.10;74.60;100920.25;5288926;26;20083;-47
2024/04/10 05:01:53;;;;;;;2.30;0.60;;;;;;;5.06;74.88;100915.84;5298616;26;20568;-49
2024/04/10 05:07:08;;;;;;;2.25;1.08;;;;;;;5.06;74.78;100915.84;5300646;26;21480;-48
2024/04/10 05:09:34;;;;;;;3.38;1.08;;;;;;;5.05;75.01;100908.97;5293141;26;20001;-46
2024/04/10 05:12:02;;;;;;;3.80;0.70;;;;;;;5.07;74.99;100912.44;5292274;26;20076;-47
2024/04/10 05:14:30;;;;;;;5.47;1.42;;;;;;;5.09;74.79;100917.63;5302747;26;20012;-47
2024/04/10 05:16:57;;;;;;;6.63;0.82;;;;;;;5.09;74.86;100917.63;5292662;26;20083;-45
2024/04/10 05:19:25;;;;;;;4.90;0.70;;;;;;;5.09;74.74;100920.19;5296048;26;20017;-49
2024/04/10 05:21:52;;;;;;;2.67;0.60;;;;;;;5.08;74.89;100921.03;5301622;26;20090;-47
2024/04/10 05:24:23;;;;;;;2.60;1.02;;;;;;;5.06;74.80;100925.25;5302888;26;20002;-47
2024/04/10 05:26:50;;;;;;;3.92;1.15;;;;;;;5.05;74.59;100924.38;5281566;26;20011;-47
2024/04/10 05:29:17;;;;;;;4.72;0.75;;;;;;;5.06;74.80;100931.25;5293888;26;20474;-51
2024/04/10 05:31:44;;;;;;;1.35;1.13;;;;;;;5.07;74.79;100935.53;5300572;26;20014;-47
2024/04/10 05:34:11;;;;;;;2.53;0.52;;;;;;;5.09;74.30;100931.34;5293233;26;20020;-48
2024/04/10 05:36:39;;;;;;;1.30;0.68;;;;;;;5.09;74.55;100941.63;5294241;26;20009;-46
2024/04/10 05:39:06;;;;;;;6.05;1.75;;;;;;;5.11;74.49;100949.38;5299141;26;20042;-46
2024/04/10 05:41:32;;;;;;;1.90;1.13;;;;;;;5.12;74.23;100944.31;5298163;26;20018;-50
2024/04/10 05:44:00;;;;;;;4.60;0.88;;;;;;;5.12;74.21;100945.97;5298165;26;20080;-45
2024/04/10 05:46:26;;;;;;;2.63;0.95;;;;;;;5.12;74.29;100944.31;5301906;26;20002;-47
2024/04/10 05:48:53;;;;;;;4.03;0.75;;;;;;;5.12;74.47;100957.16;5302571;26;20045;-47
2024/04/10 05:51:20;;;;;;;1.73;0.70;;;;;;;5.14;74.25;100954.63;5302460;26;20005;-45
2024/04/10 05:53:47;;;;;;;5.95;0.75;;;;;;;5.14;74.08;100963.19;5300405;26;20084;-46
2024/04/10 05:56:15;;;;;;;1.92;0.50;;;;;;;5.17;74.19;100964.13;5301503;26;20209;-46
2024/04/10 05:58:42;;;;;;;1.77;0.73;;;;;;;5.16;74.56;100955.53;5302967;26;20477;-48
2024/04/10 06:01:09;;;;;;;5.20;1.02;;;;;;;5.21;74.54;100964.28;5297189;26;20013;-45
2024/04/10 06:03:36;;;;;;;3.47;1.02;;;;;;;5.24;74.20;100960.94;5300807;26;20010;-45
2024/04/10 06:06:12;;;;;;;3.38;0.95;;;;;;;5.28;74.43;100962.81;5304936;26;20295;-45
2024/04/10 06:08:40;;;;;;;1.23;0.52;;;;;;;5.31;74.16;100960.34;5305567;26;20050;-46
2024/04/10 06:11:08;;;;;;;4.63;1.35;;;;;;;5.36;74.50;100960.47;5301165;26;20135;-47
2024/04/10 06:13:36;;;;;;;0.98;0.75;;;;;;;5.39;74.27;100971.75;5301731;26;20335;-46
2024/04/10 06:16:05;;;;;;;7.25;1.58;;;;;;;5.46;74.24;100961.66;5296676;26;20817;-46
2024/04/10 06:18:32;;;;;;;3.67;1.52;;;;;;;5.53;74.14;100963.59;5296484;26;20080;-47
2024/04/10 06:21:00;;;;;;;2.58;1.48;;;;;;;5.58;74.55;100964.66;5294917;26;20448;-46
2024/04/10 06:23:28;;;;;;;3.00;1.60;;;;;;;5.66;74.15;100965.75;5272638;26;20013;-49
2024/04/10 06:25:55;;;;;;;6.25;0.93;;;;;;;5.75;74.10;100959.16;5301968;26;20080;-45
2024/04/10 06:28:24;;;;;;;3.75;1.63;;;;;;;5.85;74.03;100963.78;5294870;26;20018;-47
2024/04/10 06:31:00;;;;;;;2.03;1.20;;;;;;;5.93;74.07;100953.72;5300130;26;20485;-44
2024/04/10 06:33:27;;;;;;;2.40;1.17;;;;;;;6.01;74.23;100951.41;5299879;26;20010;-45
2024/04/10 06:35:58;;;;;;;3.30;1.02;;;;;;;6.09;74.03;100957.69;5302415;26;20001;-47
2024/04/10 06:38:25;;;;;;;4.53;1.13;;;;;;;6.15;73.90;100950.13;5327370;26;20006;-45
2024/04/10 06:40:54;;;;;;;4.53;0.95;;;;;;;6.24;74.04;100943.50;5304567;26;20022;-45
2024/04/10 06:43:21;;;;;;;5.45;0.88;;;;;;;6.30;74.05;100942.00;5295096;27;20014;-46
2024/04/10 06:46:07;;;;;;;3.10;0.60;;;;;;;6.36;73.97;100938.75;5300015;26;20521;-47
2024/04/10 06:48:35;;;;;;;4.25;1.02;;;;;;;6.45;74.23;100937.25;5302355;26;19998;-49
2024/04/10 06:51:05;;;;;;;3.53;1.30;;;;;;;6.54;74.04;100934.94;5294963;27;20013;-46
2024/04/10 06:53:32;;;;;;;3.42;1.33;;;;;;;6.63;74.06;100932.66;5300273;26;20002;-45
2024/04/10 06:56:02;;;;;;;8.07;1.83;;;;;;;6.73;74.41;100935.47;5293307;27;20001;-45
2024/04/10 06:58:31;;;;;;;4.65;1.50;;;;;;;7.09;74.12;100937.25;5280499;27;20013;-47
2024/04/10 07:01:03;;;;;;;4.75;2.08;;;;;;;7.34;73.97;100940.47;5296526;26;20016;-46
2024/04/10 07:03:31;;;;;;;12.07;2.33;;;;;;;7.48;73.87;100945.09;5294524;26;20080;-45
2024/04/10 07:09:55;;;;;;;12.23;4.50;;;;;;;9.24;73.32;100967.72;5430532;25;20759;-47
2024/04/10 07:12:23;;;;;;;5.05;2.92;;;;;;;9.93;72.52;100963.63;5410120;26;20051;-47
2024/04/10 07:14:50;;;;;;;6.75;3.40;;;;;;;10.51;71.24;100962.69;5416605;26;20004;-46
2024/04/10 07:17:17;;;;;;;8.43;2.75;;;;;;;10.98;69.86;100963.22;5410267;26;20812;-48
2024/04/10 07:19:43;;;;;;;5.50;0.77;;;;;;;11.42;69.04;100959.31;5398954;26;20332;-47
2024/04/10 07:22:10;;;;;;;11.93;2.88;;;;;;;11.88;69.25;100959.63;5377316;26;20049;-48
2024/04/10 07:24:37;;;;;;;7.25;3.42;;;;;;;12.13;67.62;100959.81;5389547;26;20016;-47
2024/04/10 07:27:04;;;;;;;6.95;2.85;;;;;;;12.32;67.19;100948.66;5407245;26;20019;-47
2024/04/10 07:29:31;;;;;;;4.50;3.35;;;;;;;12.59;66.73;100954.84;5414009;26;20061;-47
2024/04/10 07:31:57;;;;;;;5.60;2.58;;;;;;;12.85;66.20;100954.06;5415512;26;20018;-47
2024/04/10 07:34:24;;;;;;;11.77;3.03;;;;;;;13.09;65.09;100952.34;5420987;26;20010;-47
2024/04/10 07:36:51;;;;;;;8.02;3.20;;;;;;;13.37;64.50;100949.78;5424942;26;21877;-50
2024/04/10 07:39:19;;;;;;;7.07;2.85;;;;;;;13.58;64.14;100948.03;5388839;26;20014;-50
2024/04/10 07:41:45;;;;;;;6.43;3.17;;;;;;;13.89;64.07;100949.75;5388665;26;20155;-49
2024/04/10 07:44:14;;;;;;;10.23;3.55;;;;;;;14.36;63.52;100945.25;5390258;26;20840;-46
2024/04/10 07:46:41;;;;;;;13.80;3.53;;;;;;;14.74;62.86;100947.69;5418261;26;20000;-47
2024/04/10 07:49:09;;;;;;;4.38;2.90;;;;;;;15.03;62.24;100947.53;5389016;26;20011;-46
2024/04/10 07:51:37;;;;;;;7.93;4.28;;;;;;;15.27;61.14;100947.38;5389801;26;20032;-47
2024/04/10 07:54:03;;;;;;;4.90;2.53;;;;;;;15.54;60.94;100950.66;5389193;26;20012;-52
2024/04/10 07:56:30;;;;;;;5.53;3.25;;;;;;;15.84;60.16;100935.53;5389348;26;20004;-47
2024/04/10 07:58:58;;;;;;;5.40;2.72;;;;;;;15.89;59.23;100933.75;5389581;26;20000;-51
2024/04/10 08:01:25;;;;;;;5.38;3.25;;;;;;;16.02;59.70;100938.88;5387240;26;20004;-49
2024/04/10 08:03:53;;;;;;;4.85;3.22;;;;;;;16.35;59.25;100941.09;5388228;26;20015;-49
2024/04/10 08:06:20;;;;;;;6.35;3.13;;;;;;;16.53;58.59;100950.47;5388332;26;20089;-49
2024/04/10 08:08:46;;;;;;;4.82;2.72;;;;;;;16.80;58.06;100943.13;5389359;26;20008;-50
2024/04/10 08:11:17;;;;;;;5.35;3.50;;;;;;;16.96;56.67;100934.16;5389162;26;20008;-47
2024/04/10 08:13:45;;;;;;;5.60;4.25;;;;;;;16.91;56.59;100938.59;5397115;26;20004;-52
2024/04/10 08:16:12;;;;;;;5.03;2.50;;;;;;;16.83;56.02;100937.84;5389180;26;20437;-51
2024/04/10 08:18:43;;;;;;;7.45;3.05;;;;;;;16.80;56.05;100927.44;5387458;26;20032;-51
2024/04/10 08:21:13;;;;;;;5.40;2.67;;;;;;;16.76;56.08;100936.22;5373307;26;20008;-50
2024/04/10 08:23:41;;;;;;;5.13;2.70;;;;;;;16.78;55.84;100934.41;5364730;26;20005;-48
2024/04/10 08:28:54;;;;;;;4.93;1.17;;;;;;;17.08;55.78;100932.25;5531537;25;20400;-52
2024/04/10 08:31:24;;;;;;;3.42;0.88;;;;;;;16.93;55.09;100931.56;5484023;25;20010;-48
2024/04/10 08:33:52;;;;;;;7.15;1.10;;;;;;;16.82;55.51;100941.38;5498213;25;20006;-49
2024/04/10 08:36:21;;;;;;;11.48;1.42;;;;;;;16.52;54.37;100944.34;5496249;25;20072;-49
2024/04/10 08:38:48;;;;;;;1.85;0.70;;;;;;;16.26;55.36;100942.09;5490339;26;20510;-50
2024/04/10 08:41:17;;;;;;;3.50;1.55;;;;;;;16.05;55.33;100941.47;5493095;25;20013;-51
2024/04/10 08:43:48;;;;;;;4.43;0.70;;;;;;;15.86;55.70;100940.75;5488657;26;20832;-48
2024/04/10 08:46:17;;;;;;;4.97;0.82;;;;;;;15.82;55.92;100942.53;5493852;25;20050;-48
2024/04/10 08:48:45;;;;;;;;;;;;;;;15.67;55.93;100952.25;5489477;26;20056;-50
2024/04/10 08:51:14;;;;;;;6.40;0.52;;;;;;;15.48;56.81;100953.28;5489444;25;19931;-51
2024/04/10 08:53:43;;;;;;;4.32;0.93;;;;;;;15.08;57.24;100954.47;5489949;25;20002;-47
2024/04/10 08:56:11;;;;;;;6.45;0.55;;;;;;;14.75;57.37;100958.13;5493438;25;20020;-49
2024/04/10 08:58:39;;;;;;;5.15;0.80;;;;;;;14.46;57.96;100955.66;5496739;25;20020;-49
2024/04/10 09:01:06;;;;;;;6.65;1.05;;;;;;;14.29;58.73;100964.41;5495643;26;20045;-51
2024/04/10 09:03:34;;;;;;;5.68;1.10;;;;;;;14.18;59.47;100960.97;5493841;25;20482;-50
2024/04/10 09:06:06;;;;;;;7.22;1.00;;;;;;;14.12;59.92;100962.72;5487959;25;20081;-47
2024/04/10 09:08:34;;;;;;;4.40;0.88;;;;;;;13.99;58.71;100953.22;5495531;25;20017;-48
2024/04/10 09:11:01;;;;;;;2.90;0.93;;;;;;;13.80;58.21;100963.66;5473638;26;20006;-50
2024/04/10 09:13:29;;;;;;;2.03;0.70;;;;;;;13.84;58.83;100947.16;5487883;26;20017;-48
2024/04/10 09:15:57;;;;;;;4.47;0.63;;;;;;;13.85;59.46;100938.47;5490803;25;20006;-49
2024/04/10 09:18:24;;;;;;;2.78;0.70;;;;;;;13.90;59.50;100940.19;5487845;25;20028;-46
2024/04/10 09:21:03;;;;;;;4.60;0.90;;;;;;;13.82;58.77;100935.84;5488088;25;20002;-48
2024/04/10 09:23:30;;;;;;;2.75;0.90;;;;;;;13.91;59.48;100934.13;5485188;25;20030;-47
2024/04/10 09:25:57;;;;;;;1.98;0.47;;;;;;;13.80;59.41;100923.72;5490698;25;20009;-48
2024/04/10 09:28:24;;;;;;;5.22;0.70;;;;;;;13.73;60.04;100928.09;5498429;25;20002;-47
2024/04/10 09:30:56;;;;;;;3.60;1.13;;;;;;;13.79;59.73;100933.28;5481407;25;20015;-47
2024/04/10 09:33:26;;;;;;;5.88;1.33;;;;;;;13.80;59.63;100929.81;5483682;25;20080;-47
2024/04/10 09:35:55;;;;;;;2.17;0.85;;;;;;;13.74;60.28;100930.69;5479654;26;20014;-48
2024/04/10 09:38:23;;;;;;;4.45;0.82;;;;;;;13.67;59.83;100925.47;5481768;25;20010;-47
2024/04/10 09:41:00;;;;;;;7.45;0.60;;;;;;;13.68;60.47;100935.03;5479766;26;20002;-49
2024/04/10 09:43:30;;;;;;;5.25;1.13;;;;;;;13.70;60.77;100941.09;5464024;26;20020;-47
2024/04/10 09:45:57;;;;;;;3.80;0.77;;;;;;;13.65;61.29;100935.03;5476324;26;20086;-49
2024/04/10 09:48:28;;;;;;;5.05;0.90;;;;;;;13.79;61.13;100933.28;5460595;26;20013;-45
2024/04/10 09:50:56;;;;;;;4.50;1.38;;;;;;;13.90;61.32;100934.97;5466582;26;20660;-50
2024/04/10 09:53:23;;;;;;;9.07;1.05;;;;;;;13.75;60.81;100941.97;5459901;26;20024;-48
2024/04/10 09:55:50;;;;;;;4.10;1.00;;;;;;;13.72;60.35;100940.22;5478707;26;20014;-48
2024/04/10 09:58:18;;;;;;;3.83;0.85;;;;;;;13.69;60.98;100952.38;5482097;26;20002;-48
2024/04/10 10:00:45;;;;;;;2.08;0.57;;;;;;;13.47;59.59;100955.84;5474236;26;20002;-48
2024/04/10 10:03:24;;;;;;;2.13;0.95;;;;;;;13.19;59.08;100941.94;5472217;25;20083;-47
2024/04/10 10:06:07;;;;;;;2.60;0.68;;;;;;;12.99;59.13;100950.59;5471262;26;20042;-50
2024/04/10 10:08:35;;;;;;;2.55;0.85;;;;;;;12.95;59.73;100951.47;5473215;26;20006;-49
2024/04/10 10:11:05;;;;;;;6.43;1.55;;;;;;;12.85;60.09;100951.44;5475778;26;20006;-48
2024/04/10 10:13:45;;;;;;;1.52;0.80;;;;;;;12.70;60.54;100954.00;5473377;26;20005;-48
2024/04/10 10:16:23;;;;;;;3.22;0.80;;;;;;;12.72;61.02;100947.06;5471058;25;20038;-48
2024/04/10 10:18:55;;;;;;;3.47;0.93;;;;;;;12.71;61.24;100945.34;5472690;26;20455;-48
2024/04/10 10:21:23;;;;;;;3.63;1.20;;;;;;;12.49;61.27;100950.47;5471925;26;20020;-47
2024/04/10 10:24:06;;;;;;;1.95;0.93;;;;;;;12.43;61.47;100945.25;5467285;26;20038;-48
2024/04/10 10:26:33;;;;;;;4.30;1.08;;;;;;;12.56;61.98;100940.94;5475534;25;20457;-48
2024/04/10 10:29:04;;;;;;;2.15;0.50;;;;;;;12.47;62.78;100936.59;5476984;26;20079;-49
2024/04/10 10:31:36;;;;;;;3.17;1.00;;;;;;;12.46;63.27;100934.84;5472918;26;20005;-48
2024/04/10 10:34:12;;;;;;;2.08;1.15;;;;;;;12.42;63.51;100938.31;5472597;25;20024;-52
2024/04/10 10:36:39;;;;;;;6.63;0.93;;;;;;;12.50;63.23;100934.00;5473821;26;20002;-50
2024/04/10 10:39:10;;;;;;;4.75;0.77;;;;;;;12.56;63.76;100936.63;5475245;26;20038;-51
2024/04/10 10:41:37;;;;;;;4.78;0.80;;;;;;;12.63;64.07;100941.84;5476167;26;19998;-52
2024/04/10 10:44:04;;;;;;;4.25;1.17;;;;;;;12.61;64.08;100936.66;5472673;26;20081;-50
2024/04/10 10:46:33;;;;;;;2.25;1.05;;;;;;;12.58;63.58;100921.91;5475188;25;20002;-52
2024/04/10 10:49:01;;;;;;;2.60;1.02;;;;;;;12.76;63.80;100933.22;5476058;25;20002;-51
2024/04/10 10:51:30;;;;;;;3.88;1.08;;;;;;;12.87;64.10;100927.19;5476403;26;20006;-49
2024/04/10 10:53:57;;;;;;;3.85;1.02;;;;;;;13.06;64.45;100928.94;5472304;26;20006;-48
2024/04/10 10:56:27;;;;;;;0.90;0.55;;;;;;;13.15;63.55;100930.69;5468378;26;20062;-49
2024/04/10 10:58:54;;;;;;;3.45;0.68;;;;;;;13.21;62.83;100927.22;5470900;26;20005;-49
2024/04/10 11:01:21;;;;;;;3.40;1.00;;;;;;;13.10;63.48;100932.41;5467121;26;20372;-47
2024/04/10 11:03:48;;;;;;;3.70;0.57;;;;;;;13.11;62.93;100935.00;5460741;25;20863;-50
2024/04/10 11:06:16;;;;;;;2.90;1.13;;;;;;;13.15;63.84;100914.19;5472752;26;20010;-49
2024/04/10 11:08:43;;;;;;;6.05;0.90;;;;;;;13.06;64.32;100918.53;5476341;26;20006;-46
2024/04/10 11:11:15;;;;;;;1.00;0.45;;;;;;;13.00;63.91;100926.31;5472149;25;20024;-50
2024/04/10 11:13:49;;;;;;;3.13;0.70;;;;;;;12.98;64.52;100928.91;5473160;26;19998;-49
2024/04/10 11:16:32;;;;;;;4.28;1.10;;;;;;;12.95;63.88;100922.84;5473811;25;20553;-47
2024/04/10 11:19:00;;;;;;;2.03;0.50;;;;;;;12.92;64.09;100930.66;5463679;26;20015;-47
2024/04/10 11:21:27;;;;;;;5.15;0.70;;;;;;;12.80;63.81;100924.56;5474615;26;20022;-47
2024/04/10 11:23:54;;;;;;;2.05;0.93;;;;;;;12.83;64.01;100921.97;5470811;25;20014;-47
2024/04/10 11:26:21;;;;;;;2.60;0.60;;;;;;;12.67;65.30;100909.81;5461745;26;20075;-47
2024/04/10 11:28:53;;;;;;;3.95;0.75;;;;;;;12.62;65.52;100914.09;5469795;26;20082;-50
2024/04/10 11:31:20;;;;;;;3.88;0.82;;;;;;;12.57;66.01;100906.31;5467008;26;20450;-47
2024/04/10 11:33:48;;;;;;;4.13;0.50;;;;;;;12.67;65.73;100917.59;5476582;26;20457;-48
2024/04/10 11:36:15;;;;;;;2.38;0.60;;;;;;;12.53;66.75;100905.44;5471714;26;20006;-48
2024/04/10 11:38:43;;;;;;;2.03;0.60;;;;;;;12.41;66.42;100908.88;5460734;26;20034;-47
2024/04/10 11:41:10;;;;;;;1.98;0.70;;;;;;;12.30;66.78;100897.56;5467345;26;20013;-47